Time;durP1;ratioP1;P1;durP2;ratioP2;P2;SDS_P1;SDS_P2;PMS_P1;PMS_P2;Temp;Humidity;BMP_temperature;BMP_pressure;BME280_temperature;BME280_humidity;BME280_pressure;Samples;Min_cycle;Max_cycle;Signal;HPM_P1;HPM_P2
2023/10/28 00:00:45;;;;;;;;;2.50;1.75;;;;;17.06;85.61;98923.47;6286560;22;46964;-76
2023/10/28 00:03:11;;;;;;;;;3.25;1.75;;;;;17.08;85.13;98905.47;6313511;22;44780;-76
2023/10/28 00:05:37;;;;;;;;;4.75;4.75;;;;;17.18;84.19;98922.94;6286719;22;44737;-76
2023/10/28 00:08:03;;;;;;;;;1.50;1.50;;;;;17.14;83.56;98915.94;6286716;22;44876;-76
2023/10/28 00:10:33;;;;;;;;;4.67;3.33;;;;;17.22;82.81;98908.44;6286281;22;45049;-76
2023/10/28 00:12:59;;;;;;;;;3.75;2.25;;;;;17.04;83.15;98910.09;6286362;22;44880;-76
2023/10/28 00:15:25;;;;;;;;;5.00;4.00;;;;;17.09;84.92;98905.41;6286174;22;44838;-75
2023/10/28 00:17:51;;;;;;;;;4.67;3.00;;;;;17.15;83.30;98896.22;6313097;22;44739;-75
2023/10/28 00:20:17;;;;;;;;;3.33;3.33;;;;;17.19;84.18;98897.84;6285470;22;46173;-75
2023/10/28 00:22:46;;;;;;;;;4.00;2.00;;;;;17.31;83.17;98897.31;6313622;22;44779;-75
2023/10/28 00:25:13;;;;;;;;;2.25;1.00;;;;;17.15;84.00;98896.22;6314421;22;45420;-75
2023/10/28 00:27:40;;;;;;;;;3.00;1.67;;;;;17.17;83.32;98905.97;6286095;22;45171;-75
2023/10/28 00:30:09;;;;;;;;;2.00;2.00;;;;;17.21;83.78;98901.34;6286292;22;46643;-76
2023/10/28 00:32:36;;;;;;;;;8.00;4.00;;;;;17.15;82.56;98893.53;6285604;22;44956;-75
2023/10/28 00:35:01;;;;;;;;;5.00;4.00;;;;;17.09;82.32;98881.25;6286520;22;44812;-74
2023/10/28 00:37:27;;;;;;;;;2.50;2.50;;;;;17.11;82.78;98879.38;6280985;22;44848;-75
2023/10/28 00:39:52;;;;;;;;;2.50;2.00;;;;;17.12;84.79;98882.91;6279574;22;46637;-75
2023/10/28 00:42:18;;;;;;;;;2.00;1.50;;;;;17.22;83.09;98876.22;6280282;22;44878;-75
2023/10/28 00:44:44;;;;;;;;;4.25;3.00;;;;;17.30;82.80;98871.38;6280397;22;44859;-75
2023/10/28 00:47:12;;;;;;;;;4.25;3.00;;;;;17.24;82.24;98871.63;6282708;22;44788;-75
2023/10/28 00:49:38;;;;;;;;;2.00;2.00;;;;;17.20;82.77;98867.34;6282745;22;45151;-75
2023/10/28 00:52:04;;;;;;;;;3.75;2.00;;;;;17.23;82.52;98867.22;6282439;22;45255;-76
2023/10/28 00:54:30;;;;;;;;;1.25;1.25;;;;;17.27;81.27;98865.25;6278711;22;44791;-76
2023/10/28 00:56:57;;;;;;;;;1.00;0.00;;;;;17.36;81.89;98852.28;6280358;22;44896;-75
2023/10/28 00:59:23;;;;;;;;;1.00;1.00;;;;;17.29;80.61;98853.53;6282503;22;45278;-76
2023/10/28 01:01:51;;;;;;;;;1.00;1.00;;;;;17.24;81.50;98852.84;6281178;22;45242;-75
2023/10/28 01:04:17;;;;;;;;;1.75;1.75;;;;;17.12;80.67;98853.38;6280086;22;44696;-75
2023/10/28 01:06:42;;;;;;;;;3.75;2.00;;;;;17.05;81.19;98857.25;6282387;22;44946;-75
2023/10/28 01:09:08;;;;;;;;;2.00;2.00;;;;;16.99;81.15;98851.22;6280036;22;46521;-75
2023/10/28 01:11:39;;;;;;;;;2.00;1.00;;;;;17.11;81.40;98851.63;6280143;22;45217;-75
2023/10/28 01:14:08;;;;;;;;;2.00;2.00;;;;;16.92;81.18;98852.38;6283364;22;44824;-74
2023/10/28 01:16:34;;;;;;;;;2.00;1.00;;;;;16.87;81.61;98851.72;6281537;22;45138;-75
2023/10/28 01:19:00;;;;;;;;;2.75;1.75;;;;;16.90;82.14;98838.16;6281174;22;45399;-74
2023/10/28 01:21:26;;;;;;;;;3.50;2.50;;;;;16.90;81.82;98856.94;6278830;22;44854;-75
2023/10/28 01:23:52;;;;;;;;;1.25;1.00;;;;;16.80;82.06;98836.78;6282323;22;44846;-75
2023/10/28 01:26:18;;;;;;;;;3.75;2.75;;;;;16.87;82.12;98846.34;6282499;22;44753;-76
2023/10/28 01:28:43;;;;;;;;;0.25;0.25;;;;;16.85;81.95;98850.91;6280148;22;45036;-75
2023/10/28 01:31:09;;;;;;;;;1.25;1.25;;;;;16.85;81.86;98834.81;6281209;22;44814;-76
2023/10/28 01:33:34;;;;;;;;;1.00;1.00;;;;;16.83;82.38;98830.44;6282533;22;44821;-75
2023/10/28 01:36:00;;;;;;;;;2.75;1.25;;;;;16.82;82.35;98837.59;6281262;22;44755;-75
2023/10/28 01:38:26;;;;;;;;;2.25;2.00;;;;;16.85;82.34;98840.19;6312505;22;45262;-75
2023/10/28 01:40:52;;;;;;;;;3.25;2.75;;;;;16.86;82.41;98847.28;6315322;22;44861;-75
2023/10/28 01:43:18;;;;;;;;;2.00;1.00;;;;;16.88;81.96;98848.09;6313520;22;45007;-75
2023/10/28 01:45:44;;;;;;;;;0.50;0.50;;;;;16.80;82.49;98842.13;6286242;22;45348;-75
2023/10/28 01:48:18;;;;;;;;;0.75;0.75;;;;;17.03;82.39;98848.38;6315194;22;45006;-75
2023/10/28 01:50:43;;;;;;;;;3.00;1.75;;;;;16.71;82.84;98843.41;6287000;22;45331;-76
2023/10/28 01:53:08;;;;;;;;;1.75;1.75;;;;;16.72;82.50;98852.31;6286318;22;45219;-77
2023/10/28 01:55:34;;;;;;;;;1.00;1.00;;;;;16.69;83.41;98839.03;6314019;22;45342;-76
2023/10/28 01:58:00;;;;;;;;;0.25;0.25;;;;;16.82;82.61;98845.66;6284912;22;47003;-74
2023/10/28 02:00:30;;;;;;;;;1.75;0.75;;;;;16.85;82.40;98852.75;6312746;22;45312;-75
2023/10/28 02:03:02;;;;;;;;;1.00;1.00;;;;;17.03;82.35;98843.00;6285064;22;44919;-76
2023/10/28 02:05:29;;;;;;;;;1.25;1.25;;;;;16.83;83.23;98847.44;6313236;22;44821;-76
2023/10/28 02:07:54;;;;;;;;;2.00;2.00;;;;;16.83;83.12;98834.00;6312925;22;45452;-75
2023/10/28 02:10:21;;;;;;;;;3.00;2.00;;;;;17.13;82.05;98826.44;6285790;22;44763;-75
2023/10/28 02:12:48;;;;;;;;;2.00;1.50;;;;;16.99;81.66;98824.34;6313715;22;45460;-75
2023/10/28 02:15:13;;;;;;;;;2.00;2.00;;;;;17.00;81.25;98835.97;6286753;22;44855;-75
2023/10/28 02:17:39;;;;;;;;;1.00;1.00;;;;;16.95;81.12;98825.44;6286434;22;46023;-76
2023/10/28 02:20:06;;;;;;;;;3.00;1.75;;;;;16.90;82.02;98829.25;6314261;22;44853;-76
2023/10/28 02:22:32;;;;;;;;;2.50;2.00;;;;;16.89;81.91;98824.81;6313643;22;44826;-75
2023/10/28 02:25:04;;;;;;;;;1.50;1.50;;;;;16.87;81.93;98827.56;6286220;22;44796;-75
2023/10/28 02:27:37;;;;;;;;;1.75;1.75;;;;;17.07;82.00;98818.66;6284483;22;47207;-76
2023/10/28 02:30:07;;;;;;;;;1.00;0.75;;;;;16.95;82.54;98820.06;6313524;22;44803;-75
2023/10/28 02:32:33;;;;;;;;;2.50;2.00;;;;;16.76;82.29;98811.88;6314411;22;44763;-75
2023/10/28 02:35:02;;;;;;;;;0.00;0.00;;;;;16.76;82.37;98797.56;6285488;22;44829;-76
2023/10/28 02:37:28;;;;;;;;;2.00;2.00;;;;;16.84;82.56;98798.16;6310810;22;45415;-75
2023/10/28 02:39:55;;;;;;;;;2.75;2.00;;;;;16.89;82.08;98797.97;6314172;22;44755;-76
2023/10/28 02:42:24;;;;;;;;;0.25;0.25;;;;;17.13;82.56;98796.91;6285732;22;44912;-76
2023/10/28 02:44:50;;;;;;;;;3.00;1.00;;;;;16.95;81.75;98785.16;6285830;22;45493;-76
2023/10/28 02:47:56;;;;;;;;;2.75;1.00;;;;;17.29;81.42;98799.78;6312179;22;45082;-75
2023/10/28 02:50:21;;;;;;;;;1.00;1.00;;;;;16.90;82.01;98799.69;6285432;22;44844;-76
2023/10/28 02:52:53;;;;;;;;;3.75;1.75;;;;;16.90;82.42;98795.19;6314749;22;44757;-76
2023/10/28 02:55:21;;;;;;;;;2.75;1.50;;;;;16.85;81.42;98791.00;6314617;22;44731;-76
2023/10/28 02:57:46;;;;;;;;;4.25;1.00;;;;;16.75;82.12;98788.66;6285569;22;45385;-75
2023/10/28 03:00:12;;;;;;;;;2.00;2.00;;;;;16.81;82.30;98787.56;6285743;22;45601;-76
2023/10/28 03:02:38;;;;;;;;;3.00;2.00;;;;;16.73;81.81;98801.25;6313948;22;44785;-75
2023/10/28 03:05:05;;;;;;;;;1.50;0.00;;;;;16.72;81.86;98801.31;6286543;22;44921;-75
2023/10/28 03:07:30;;;;;;;;;0.00;0.00;;;;;16.64;82.43;98800.78;6285285;22;47054;-76
2023/10/28 03:09:56;;;;;;;;;0.00;0.00;;;;;16.55;82.17;98804.72;6285892;22;44618;-76
2023/10/28 03:12:22;;;;;;;;;0.00;0.00;;;;;16.51;81.93;98812.03;6313617;22;44779;-76
2023/10/28 03:14:47;;;;;;;;;2.00;1.00;;;;;16.46;82.28;98805.97;6286226;22;44744;-76
2023/10/28 03:17:12;;;;;;;;;3.00;1.75;;;;;16.46;83.05;98810.44;6312788;22;46279;-76
2023/10/28 03:19:44;;;;;;;;;2.50;1.25;;;;;16.67;82.38;98797.97;6313865;22;44822;-75
2023/10/28 03:22:09;;;;;;;;;2.00;1.00;;;;;16.36;82.51;98815.31;6314719;22;45197;-74
2023/10/28 03:24:34;;;;;;;;;3.00;2.00;;;;;16.37;82.73;98817.06;6314097;22;44777;-75
2023/10/28 03:27:00;;;;;;;;;2.75;1.50;;;;;16.34;82.60;98823.44;6313779;22;44980;-75
2023/10/28 03:29:25;;;;;;;;;0.25;0.25;;;;;16.31;82.63;98817.31;6285842;22;44838;-75
2023/10/28 03:31:50;;;;;;;;;4.75;3.00;;;;;16.31;82.99;98825.38;6284443;22;44862;-75
2023/10/28 03:34:16;;;;;;;;;1.00;1.00;;;;;16.32;82.78;98819.94;6283992;22;44852;-75
2023/10/28 03:36:41;;;;;;;;;1.00;1.00;;;;;16.30;82.80;98812.88;6310761;22;45733;-75
2023/10/28 03:39:07;;;;;;;;;1.00;1.00;;;;;16.30;82.62;98820.94;6286054;22;44874;-75
2023/10/28 03:41:33;;;;;;;;;0.00;0.00;;;;;16.27;82.74;98816.56;6284957;22;44799;-75
2023/10/28 03:43:58;;;;;;;;;0.25;0.00;;;;;16.31;82.74;98820.00;6314725;22;45310;-75
2023/10/28 03:46:25;;;;;;;;;3.00;0.00;;;;;16.32;83.09;98829.78;6286294;22;46698;-75
2023/10/28 03:48:51;;;;;;;;;3.00;1.25;;;;;16.38;82.70;98825.06;6314689;22;44795;-76
2023/10/28 03:51:16;;;;;;;;;2.00;0.00;;;;;16.40;82.28;98819.63;6286608;22;44874;-76
2023/10/28 03:53:42;;;;;;;;;4.25;1.50;;;;;16.41;82.44;98826.75;6286458;22;45271;-74
2023/10/28 03:56:08;;;;;;;;;0.00;0.00;;;;;16.38;81.88;98825.06;6286066;22;46930;-76
2023/10/28 03:58:34;;;;;;;;;0.75;0.75;;;;;16.42;82.28;98836.56;6285711;22;44885;-76
2023/10/28 04:01:01;;;;;;;;;1.25;1.25;;;;;16.43;82.71;98835.59;6285666;22;44835;-77
2023/10/28 04:03:26;;;;;;;;;1.00;0.50;;;;;16.55;80.99;98831.56;6313068;22;45271;-74
2023/10/28 04:05:54;;;;;;;;;0.50;0.50;;;;;16.59;81.63;98838.53;6284769;22;47111;-76
2023/10/28 04:08:19;;;;;;;;;1.00;1.00;;;;;16.56;80.46;98839.56;6312292;22;44842;-76
2023/10/28 04:10:46;;;;;;;;;4.75;2.00;;;;;16.58;80.65;98847.53;6285636;22;44839;-76
2023/10/28 04:13:14;;;;;;;;;4.00;0.75;;;;;16.47;80.77;98839.91;6285242;22;44884;-76
2023/10/28 04:15:39;;;;;;;;;1.00;1.00;;;;;16.44;81.52;98856.16;6284574;22;45225;-76
2023/10/28 04:18:05;;;;;;;;;0.00;0.00;;;;;16.44;81.01;98856.16;6285188;22;44824;-76
2023/10/28 04:20:31;;;;;;;;;1.00;1.00;;;;;16.35;81.14;98851.16;6286325;22;44850;-76
2023/10/28 04:22:57;;;;;;;;;0.75;0.75;;;;;16.37;81.30;98854.63;6315340;22;44860;-75
2023/10/28 04:25:22;;;;;;;;;1.00;0.25;;;;;16.37;81.86;98855.50;6286312;22;46806;-74
2023/10/28 04:27:49;;;;;;;;;0.00;0.00;;;;;16.40;81.87;98849.13;6313628;22;44815;-76
2023/10/28 04:30:15;;;;;;;;;0.00;0.00;;;;;16.44;81.47;98853.47;6313426;22;45397;-76
2023/10/28 04:32:40;;;;;;;;;3.00;3.00;;;;;16.51;81.51;98852.28;6287297;22;44807;-76
2023/10/28 04:35:06;;;;;;;;;2.50;0.50;;;;;16.51;81.49;98848.72;6311602;22;54214;-75
2023/10/28 04:37:32;;;;;;;;;0.00;0.00;;;;;16.54;82.33;98846.78;6279918;22;44923;-76
2023/10/28 04:39:57;;;;;;;;;2.00;2.00;;;;;16.54;81.45;98851.25;6278909;22;44831;-77
2023/10/28 04:42:23;;;;;;;;;0.00;0.00;;;;;16.56;81.31;98858.34;6273711;22;45386;-77
2023/10/28 04:44:49;;;;;;;;;4.25;1.50;;;;;16.53;81.53;98869.19;6274560;22;45386;-77
2023/10/28 04:47:57;;;;;;;;;1.25;0.50;;;;;16.83;81.00;98868.91;6275162;22;44806;-77
2023/10/28 04:50:22;;;;;;;;;2.50;2.00;;;;;16.46;81.12;98856.06;6272377;22;45311;-77
2023/10/28 04:52:48;;;;;;;;;2.00;1.00;;;;;16.44;80.90;98853.47;6273070;22;45781;-77
2023/10/28 04:55:13;;;;;;;;;1.00;1.00;;;;;16.47;81.31;98852.47;6273413;22;47212;-77
2023/10/28 04:57:40;;;;;;;;;2.00;2.00;;;;;16.44;81.21;98863.31;6273139;22;45598;-77
2023/10/28 05:00:07;;;;;;;;;1.75;0.00;;;;;16.49;81.45;98853.28;6273358;22;45408;-77
2023/10/28 05:02:34;;;;;;;;;2.00;0.33;;;;;16.46;81.02;98858.75;6272814;22;45376;-77
2023/10/28 05:05:01;;;;;;;;;1.00;1.00;;;;;16.42;81.44;98862.50;6272007;22;46808;-76
2023/10/28 05:07:26;;;;;;;;;2.25;1.00;;;;;16.45;81.46;98863.25;6274206;22;45285;-77
2023/10/28 05:09:52;;;;;;;;;1.75;1.75;;;;;16.45;81.19;98876.66;6273674;22;45441;-78
2023/10/28 05:12:18;;;;;;;;;2.00;2.00;;;;;16.47;81.22;98866.75;6272444;22;45436;-77
2023/10/28 05:14:44;;;;;;;;;0.75;0.75;;;;;16.51;81.36;98878.25;6272949;22;45776;-78
2023/10/28 05:17:10;;;;;;;;;2.00;0.50;;;;;16.50;81.29;98877.38;6275809;22;45373;-75
2023/10/28 05:19:35;;;;;;;;;0.50;0.50;;;;;16.53;81.37;98871.88;6274703;22;45390;-76
2023/10/28 05:22:03;;;;;;;;;1.50;0.25;;;;;16.63;81.30;98868.81;6273148;22;45526;-76
2023/10/28 05:24:30;;;;;;;;;0.50;0.50;;;;;16.67;81.38;98873.13;6273549;22;46310;-76
2023/10/28 05:26:57;;;;;;;;;2.00;2.00;;;;;16.64;81.81;98870.56;6272992;22;44786;-76
2023/10/28 05:29:22;;;;;;;;;1.75;1.00;;;;;16.64;80.66;98874.09;6272794;22;45415;-76
2023/10/28 05:31:48;;;;;;;;;2.00;0.00;;;;;16.66;81.83;98871.38;6276758;22;45364;-75
2023/10/28 05:34:13;;;;;;;;;1.00;0.00;;;;;16.83;80.76;98874.28;6273574;22;45933;-76
2023/10/28 05:36:39;;;;;;;;;1.00;1.00;;;;;16.85;80.45;98871.53;6279458;22;45405;-77
2023/10/28 05:39:04;;;;;;;;;1.50;1.00;;;;;16.85;80.44;98874.22;6279555;22;45424;-77
2023/10/28 05:41:30;;;;;;;;;2.00;1.00;;;;;16.85;80.34;98876.91;6306648;22;45435;-77
2023/10/28 05:43:55;;;;;;;;;2.00;2.00;;;;;16.81;80.33;98878.84;6306407;22;46719;-77
2023/10/28 05:46:22;;;;;;;;;2.00;2.00;;;;;16.85;80.27;98884.97;6305887;22;45331;-77
2023/10/28 05:48:50;;;;;;;;;1.00;1.00;;;;;16.84;80.15;98875.13;6278536;22;45412;-77
2023/10/28 05:51:16;;;;;;;;;2.00;2.00;;;;;16.78;80.45;98876.22;6278951;22;45351;-77
2023/10/28 05:53:41;;;;;;;;;4.25;3.00;;;;;16.84;79.90;98881.38;6278910;22;45371;-77
2023/10/28 05:56:14;;;;;;;;;1.25;1.25;;;;;17.13;79.32;98890.03;6307195;22;45594;-76
2023/10/28 05:58:39;;;;;;;;;3.00;0.75;;;;;16.82;79.90;98899.34;6307094;22;45375;-77
2023/10/28 06:01:06;;;;;;;;;0.00;0.00;;;;;16.98;80.46;98891.53;6278495;22;45367;-76
2023/10/28 06:03:31;;;;;;;;;2.25;2.25;;;;;16.92;80.24;98895.34;6277663;22;47445;-76
2023/10/28 06:05:57;;;;;;;;;1.75;1.75;;;;;17.04;79.27;98891.28;6277744;22;45401;-76
2023/10/28 06:08:22;;;;;;;;;1.00;1.00;;;;;17.05;79.65;98893.06;6307114;22;45327;-77
2023/10/28 06:10:47;;;;;;;;;2.25;1.25;;;;;17.10;79.27;98892.84;6278517;22;45423;-77
2023/10/28 06:13:14;;;;;;;;;4.00;1.00;;;;;17.22;79.27;98881.56;6278910;22;46376;-77
2023/10/28 06:15:41;;;;;;;;;1.00;1.00;;;;;17.20;79.68;98892.38;6307309;22;45477;-76
2023/10/28 06:18:07;;;;;;;;;2.00;2.00;;;;;17.42;78.73;98895.97;6279256;22;45413;-77
2023/10/28 06:20:33;;;;;;;;;0.50;0.50;;;;;17.49;78.93;98892.06;6307433;22;45372;-77
2023/10/28 06:22:59;;;;;;;;;1.25;1.25;;;;;17.48;78.05;98893.88;6308156;22;45349;-77
2023/10/28 06:25:24;;;;;;;;;4.00;0.50;;;;;17.47;77.59;98891.25;6307559;22;45291;-78
2023/10/28 06:27:50;;;;;;;;;2.25;0.50;;;;;17.46;78.33;98893.06;6307650;22;44887;-77
2023/10/28 06:30:15;;;;;;;;;1.50;1.50;;;;;17.46;77.88;98906.50;6307289;22;45326;-77
2023/10/28 06:32:41;;;;;;;;;1.00;1.00;;;;;17.55;78.01;98908.81;6278837;22;46064;-77
2023/10/28 06:35:07;;;;;;;;;1.75;1.25;;;;;17.63;78.20;98907.59;6306230;22;45263;-77
2023/10/28 06:37:32;;;;;;;;;1.00;0.75;;;;;17.64;76.77;98909.34;6302952;22;45405;-77
2023/10/28 06:39:58;;;;;;;;;4.75;3.00;;;;;17.75;77.35;98916.00;6307547;22;44778;-76
2023/10/28 06:42:24;;;;;;;;;1.00;1.00;;;;;17.58;77.92;98908.66;6307107;22;46242;-76
2023/10/28 06:44:50;;;;;;;;;2.00;1.75;;;;;17.65;76.58;98909.25;6278378;22;45320;-76
2023/10/28 06:47:16;;;;;;;;;1.00;1.00;;;;;17.71;76.70;98919.72;6308132;22;45357;-77
2023/10/28 06:49:42;;;;;;;;;3.50;3.50;;;;;17.68;76.93;98914.50;6307734;22;45316;-77
2023/10/28 06:52:08;;;;;;;;;1.00;1.00;;;;;17.71;77.74;98911.66;6279200;22;47586;-78
2023/10/28 06:54:33;;;;;;;;;2.00;2.00;;;;;17.77;77.41;98916.81;6307288;22;44779;-76
2023/10/28 06:56:58;;;;;;;;;2.00;1.00;;;;;17.83;76.81;98912.09;6278960;22;45624;-77
2023/10/28 06:59:26;;;;;;;;;4.00;2.00;;;;;17.87;77.15;98921.78;6278719;22;45343;-77
2023/10/28 07:01:52;;;;;;;;;1.50;1.50;;;;;17.87;76.42;98916.41;6307200;22;46095;-77
2023/10/28 07:04:18;;;;;;;;;1.00;1.00;;;;;17.78;76.34;98918.53;6306484;22;45385;-77
2023/10/28 07:06:43;;;;;;;;;1.00;1.00;;;;;17.78;75.79;98918.53;6279178;22;45391;-77
2023/10/28 07:09:09;;;;;;;;;5.50;2.00;;;;;17.70;76.18;98909.94;6278721;22;45704;-76
2023/10/28 07:11:35;;;;;;;;;5.75;4.00;;;;;17.87;75.86;98917.28;6277381;22;47214;-77
2023/10/28 07:14:01;;;;;;;;;1.00;1.00;;;;;17.71;76.15;98922.44;6307509;22;45363;-78
2023/10/28 07:16:27;;;;;;;;;1.25;1.25;;;;;17.74;75.94;98921.44;6279807;22;44971;-77
2023/10/28 07:18:53;;;;;;;;;1.50;1.00;;;;;17.76;75.97;98930.31;6279523;22;45712;-77
2023/10/28 07:21:18;;;;;;;;;4.00;2.00;;;;;17.88;76.02;98934.31;6307320;22;45454;-76
2023/10/28 07:23:45;;;;;;;;;1.00;1.00;;;;;18.06;75.67;98933.47;6278368;22;45355;-77
2023/10/28 07:26:12;;;;;;;;;2.75;2.00;;;;;17.86;75.37;98947.81;6306165;22;45414;-77
2023/10/28 07:28:38;;;;;;;;;0.75;0.75;;;;;17.79;75.50;98931.06;6279637;22;45325;-78
2023/10/28 07:31:04;;;;;;;;;2.50;1.00;;;;;17.80;75.48;98950.75;6306737;22;46001;-77
2023/10/28 07:33:30;;;;;;;;;1.50;0.00;;;;;17.79;75.87;98947.19;6277794;22;45614;-76
2023/10/28 07:35:55;;;;;;;;;1.50;1.25;;;;;17.80;75.88;98958.81;6277545;22;45345;-76
2023/10/28 07:38:21;;;;;;;;;1.00;1.00;;;;;17.81;75.37;98971.28;6272104;22;45443;-78
2023/10/28 07:40:48;;;;;;;;;1.00;1.00;;;;;17.79;75.82;98962.44;6273873;22;47138;-77
2023/10/28 07:43:17;;;;;;;;;2.25;1.50;;;;;17.84;75.66;98976.59;6273760;22;45655;-77
2023/10/28 07:45:43;;;;;;;;;2.50;1.50;;;;;17.72;75.60;98972.59;6272572;22;45315;-77
2023/10/28 07:48:09;;;;;;;;;2.50;1.00;;;;;17.77;75.43;98969.69;6273917;22;45343;-77
2023/10/28 07:50:38;;;;;;;;;1.50;1.00;;;;;17.98;75.81;98984.91;6274992;22;45333;-76
2023/10/28 07:53:04;;;;;;;;;4.50;1.00;;;;;17.73;75.45;98982.41;6274888;22;45242;-77
2023/10/28 07:55:30;;;;;;;;;1.00;1.00;;;;;17.71;75.84;98997.72;6272971;22;45323;-78
2023/10/28 07:57:56;;;;;;;;;0.75;0.75;;;;;17.79;75.40;98995.59;6275184;22;45310;-77
2023/10/28 08:00:22;;;;;;;;;4.00;2.50;;;;;17.82;75.39;98993.72;6275368;22;46023;-77
2023/10/28 08:02:48;;;;;;;;;1.25;1.25;;;;;17.83;75.64;98998.13;6273884;22;45387;-77
2023/10/28 08:05:13;;;;;;;;;1.00;1.00;;;;;17.78;75.68;98999.19;6276130;22;45441;-77
2023/10/28 08:07:39;;;;;;;;;1.00;1.00;;;;;17.79;76.08;99006.34;6272863;22;45795;-76
2023/10/28 08:10:05;;;;;;;;;4.00;4.00;;;;;17.89;75.67;99004.13;6274906;22;45440;-76
2023/10/28 08:15:52;;;;;;;;;1.00;1.00;;;;;17.82;75.52;98986.50;6275256;22;45437;-77
2023/10/28 08:18:19;;;;;;;;;2.00;1.00;;;;;17.80;75.35;98989.25;6276343;22;45275;-77
2023/10/28 08:20:44;;;;;;;;;1.00;1.00;;;;;17.83;76.15;99003.50;6273168;22;46989;-77
2023/10/28 08:23:09;;;;;;;;;0.00;0.00;;;;;17.84;76.13;98994.56;6274783;22;45417;-77
2023/10/28 08:25:35;;;;;;;;;4.00;1.50;;;;;17.85;76.06;98994.47;6273206;22;45349;-76
2023/10/28 08:28:01;;;;;;;;;1.00;1.00;;;;;17.95;76.01;98990.41;6275204;22;44768;-76
2023/10/28 08:30:28;;;;;;;;;4.00;1.25;;;;;17.99;76.05;98993.84;6275977;22;46198;-77
2023/10/28 08:32:54;;;;;;;;;0.75;0.75;;;;;18.09;75.49;98997.00;6272827;22;45187;-76
2023/10/28 08:35:19;;;;;;;;;0.75;0.75;;;;;18.05;76.06;98996.28;6273035;22;44828;-76
2023/10/28 08:37:47;;;;;;;;;2.25;2.25;;;;;18.31;75.42;98991.53;6271771;22;45407;-77
2023/10/28 08:40:12;;;;;;;;;1.00;1.00;;;;;18.17;74.60;98992.16;6273702;22;47164;-76
2023/10/28 08:42:45;;;;;;;;;4.75;2.25;;;;;18.15;74.87;98984.16;6272896;22;45362;-77
2023/10/28 08:45:10;;;;;;;;;1.50;1.50;;;;;18.12;75.00;98972.69;6273232;22;44789;-77
2023/10/28 08:47:40;;;;;;;;;3.00;1.50;;;;;18.32;74.86;98960.97;6275319;22;45290;-77
2023/10/28 08:50:07;;;;;;;;;0.00;0.00;;;;;18.17;75.66;98962.56;6274374;22;45149;-77
2023/10/28 08:52:38;;;;;;;;;2.25;2.25;;;;;18.45;75.40;98970.25;6273315;22;45254;-77
2023/10/28 08:55:04;;;;;;;;;3.00;2.00;;;;;18.38;75.51;98956.22;6274269;22;45847;-77
2023/10/28 08:57:30;;;;;;;;;2.00;1.00;;;;;18.47;74.27;98948.66;6273445;22;45405;-77
2023/10/28 08:59:56;;;;;;;;;0.75;0.75;;;;;18.78;74.41;98953.44;6274205;22;46958;-77
2023/10/28 09:02:24;;;;;;;;;1.75;1.75;;;;;18.77;73.48;98957.09;6275751;22;45307;-77
2023/10/28 09:04:49;;;;;;;;;2.00;2.00;;;;;18.63;73.75;98951.50;6274429;22;45368;-77
2023/10/28 09:07:15;;;;;;;;;2.00;0.00;;;;;18.70;74.32;98956.47;6276800;22;45329;-77
2023/10/28 09:09:40;;;;;;;;;1.00;1.00;;;;;18.80;73.81;98951.56;6273388;22;47205;-77
2023/10/28 09:12:09;;;;;;;;;1.00;1.00;;;;;19.02;73.76;98958.59;6273813;22;45340;-77
2023/10/28 09:14:34;;;;;;;;;1.50;1.50;;;;;18.87;73.04;98942.25;6271941;22;45430;-77
2023/10/28 09:17:08;;;;;;;;;0.75;0.75;;;;;18.87;73.62;98942.25;6243838;22;45351;-77
2023/10/28 09:19:34;;;;;;;;;1.00;1.00;;;;;18.94;72.80;98940.13;6242128;22;46902;-77
2023/10/28 09:22:00;;;;;;;;;1.50;1.50;;;;;19.08;73.40;98947.53;6242143;22;45399;-77
2023/10/28 09:24:25;;;;;;;;;0.00;0.00;;;;;19.08;73.32;98939.44;6245579;22;45440;-76
2023/10/28 09:26:51;;;;;;;;;2.00;2.00;;;;;19.16;72.43;98940.78;6245190;22;45299;-77
2023/10/28 09:29:30;;;;;;;;;0.25;0.25;;;;;19.50;71.14;98946.31;6242515;22;47180;-77
2023/10/28 09:32:06;;;;;;;;;1.00;1.00;;;;;19.48;71.05;98938.31;6244085;22;45387;-77
2023/10/28 09:34:34;;;;;;;;;1.25;1.00;;;;;19.41;71.83;98941.38;6243874;22;45996;-77
2023/10/28 09:37:16;;;;;;;;;1.00;1.00;;;;;19.51;71.80;98942.66;6244910;22;45375;-77
2023/10/28 09:39:46;;;;;;;;;0.00;0.00;;;;;19.23;71.32;98932.41;6275668;22;46202;-77
2023/10/28 09:42:12;;;;;;;;;1.00;1.00;;;;;19.35;71.88;98932.69;6246908;22;45478;-77
2023/10/28 09:44:39;;;;;;;;;1.00;1.00;;;;;19.50;71.65;98932.84;6247679;22;44764;-77
2023/10/28 09:47:05;;;;;;;;;0.00;0.00;;;;;19.65;71.73;98934.72;6275456;22;45439;-77
2023/10/28 09:49:31;;;;;;;;;2.00;1.00;;;;;19.65;71.13;98934.72;6246532;22;47706;-76
2023/10/28 09:52:07;;;;;;;;;2.00;1.00;;;;;19.92;69.24;98940.53;6246869;22;45291;-77
2023/10/28 09:54:35;;;;;;;;;3.00;0.00;;;;;19.80;70.17;98934.94;6274937;22;45296;-77
2023/10/28 09:57:01;;;;;;;;;0.00;0.00;;;;;19.63;70.19;98931.22;6222092;22;45491;-77
2023/10/28 09:59:39;;;;;;;;;1.00;1.00;;;;;19.78;69.82;98927.78;6273364;22;46923;-77
2023/10/28 10:02:32;;;;;;;;;0.00;0.00;;;;;19.76;70.20;98916.19;6248159;22;45406;-77
2023/10/28 10:05:18;;;;;;;;;0.50;0.00;;;;;19.83;69.38;98923.97;6248743;22;44723;-77
2023/10/28 10:07:45;;;;;;;;;1.50;0.00;;;;;19.59;70.20;98924.25;6277771;22;45451;-77
2023/10/28 10:10:15;;;;;;;;;0.00;0.00;;;;;19.68;68.24;98931.88;6276573;22;46395;-77
2023/10/28 10:12:41;;;;;;;;;2.75;1.00;;;;;19.66;68.46;98924.81;6276726;22;44889;-77
2023/10/28 10:15:19;;;;;;;;;1.00;1.00;;;;;19.88;69.36;98933.56;6276863;22;45426;-77
2023/10/28 10:18:21;;;;;;;;;1.00;1.00;;;;;19.99;68.75;98933.84;6247813;22;45338;-76
2023/10/28 10:20:46;;;;;;;;;0.75;0.75;;;;;19.62;69.10;98947.50;6276673;22;46056;-76
2023/10/28 10:23:13;;;;;;;;;2.00;0.00;;;;;19.81;69.59;98961.78;6248143;22;45359;-77
2023/10/28 10:25:43;;;;;;;;;1.50;1.50;;;;;19.94;69.10;98962.91;6248776;22;45383;-77
2023/10/28 10:28:13;;;;;;;;;0.00;0.00;;;;;20.05;69.19;98978.53;6249489;22;45593;-77
2023/10/28 10:30:39;;;;;;;;;1.50;0.50;;;;;19.80;68.25;98989.75;6276029;22;45323;-77
2023/10/28 10:33:04;;;;;;;;;0.00;0.00;;;;;19.59;68.30;98983.56;6277724;22;45308;-77
2023/10/28 10:35:34;;;;;;;;;1.00;1.00;;;;;19.73;68.50;98985.59;6250789;22;45380;-77
2023/10/28 10:38:08;;;;;;;;;0.00;0.00;;;;;19.66;67.35;98995.81;6266328;22;45452;-76
2023/10/28 10:40:49;;;;;;;;;0.25;0.25;;;;;19.49;68.63;98996.69;6276792;22;47446;-76
2023/10/28 10:43:18;;;;;;;;;0.00;0.00;;;;;19.53;68.13;98995.56;6277192;22;45354;-77
2023/10/28 10:45:45;;;;;;;;;0.00;0.00;;;;;19.35;68.40;98986.59;6248583;22;45415;-77
2023/10/28 10:48:11;;;;;;;;;1.00;1.00;;;;;19.25;68.99;98976.31;6248831;22;45399;-76
2023/10/28 10:50:38;;;;;;;;;0.50;0.50;;;;;19.28;69.23;98978.88;6276007;22;45386;-77
2023/10/28 10:53:04;;;;;;;;;1.25;1.00;;;;;19.23;68.89;98957.56;6248502;22;45486;-77
2023/10/28 10:55:30;;;;;;;;;1.00;1.00;;;;;19.31;68.53;98952.66;6276234;22;45272;-77
2023/10/28 10:57:56;;;;;;;;;2.00;2.00;;;;;19.34;68.86;98949.78;6276073;22;45228;-78
2023/10/28 11:00:22;;;;;;;;;2.50;1.00;;;;;19.51;69.33;98948.94;6248083;22;47083;-78
2023/10/28 11:02:49;;;;;;;;;1.75;1.75;;;;;19.54;68.08;98937.13;6248362;22;45701;-77
2023/10/28 11:05:16;;;;;;;;;1.00;1.00;;;;;19.63;67.82;98950.09;6248482;22;44841;-77
2023/10/28 11:07:42;;;;;;;;;2.00;1.00;;;;;19.62;68.21;98952.91;6248952;22;45417;-77
2023/10/28 11:10:09;;;;;;;;;1.75;1.75;;;;;19.71;68.18;98947.94;6248286;22;47983;-76
2023/10/28 11:12:35;;;;;;;;;1.00;1.00;;;;;19.88;68.05;98951.59;6248110;22;45377;-77
2023/10/28 11:15:01;;;;;;;;;0.75;0.75;;;;;19.96;66.37;98947.50;6275119;22;45359;-77
2023/10/28 11:17:26;;;;;;;;;1.00;0.00;;;;;20.06;65.48;98950.59;6247961;22;45385;-77
2023/10/28 11:19:52;;;;;;;;;0.00;0.00;;;;;20.14;65.38;98942.09;6248298;22;47301;-77
2023/10/28 11:22:18;;;;;;;;;1.00;1.00;;;;;20.14;65.72;98942.97;6248039;22;45356;-77
2023/10/28 11:24:44;;;;;;;;;0.00;0.00;;;;;20.18;66.33;98935.56;6275751;22;45341;-76
2023/10/28 11:27:18;;;;;;;;;0.00;0.00;;;;;20.72;65.83;98936.22;6248201;22;45428;-77
2023/10/28 11:29:44;;;;;;;;;0.00;0.00;;;;;20.67;64.36;98934.72;6274781;22;48059;-76
2023/10/28 11:32:09;;;;;;;;;1.00;1.00;;;;;20.73;64.29;98934.38;6247635;22;46052;-77
2023/10/28 11:34:43;;;;;;;;;2.00;1.00;;;;;20.87;64.57;98930.88;6247116;22;45394;-76
2023/10/28 11:37:10;;;;;;;;;0.00;0.00;;;;;20.83;63.93;98942.81;6273792;22;45721;-76